createdAt,value
2023-02-06T00:01:31.186Z,95867.47
2023-02-06T00:03:57.925Z,95873.88
2023-02-06T00:06:24.766Z,95874.88
2023-02-06T00:08:51.825Z,95874.22
2023-02-06T00:11:19.117Z,95874.22
2023-02-06T00:13:46.157Z,95873.59
2023-02-06T00:16:25.467Z,95875.50
2023-02-06T00:18:53.350Z,95873.56
2023-02-06T00:21:22.112Z,95882.34
2023-02-06T00:23:49.266Z,95879.56
2023-02-06T00:26:16.314Z,95878.47
2023-02-06T00:28:43.430Z,95888.13
2023-02-06T00:31:11.037Z,95884.91
2023-02-06T00:33:39.647Z,95887.66
2023-02-06T00:36:06.984Z,95889.63
2023-02-06T00:38:34.102Z,95869.88
2023-02-06T00:41:00.930Z,95897.63
2023-02-06T00:43:29.675Z,95890.53
2023-02-06T00:45:57.680Z,95896.66
2023-02-06T00:48:25.492Z,95906.88
2023-02-06T00:50:53.780Z,95889.81
2023-02-06T00:53:21.558Z,95891.81
2023-02-06T00:55:48.289Z,95903.88
2023-02-06T00:58:15.234Z,95905.88
2023-02-06T01:00:43.472Z,95911.44
2023-02-06T01:03:10.792Z,95884.63
2023-02-06T01:05:37.805Z,95902.53
2023-02-06T01:08:04.881Z,95904.31
2023-02-06T01:10:32.457Z,95909.84
2023-02-06T01:13:00.734Z,95905.91
2023-02-06T01:15:27.989Z,95910.50
2023-02-06T01:17:54.945Z,95914.28
2023-02-06T01:20:23.080Z,95923.63
2023-02-06T01:22:50.676Z,95925.56
2023-02-06T01:25:17.526Z,95916.00
2023-02-06T01:27:44.566Z,95926.84
2023-02-06T01:30:11.916Z,95900.53
2023-02-06T01:32:40.078Z,95918.78
2023-02-06T01:35:08.856Z,95932.69
2023-02-06T01:37:36.788Z,95929.75
2023-02-06T01:40:05.751Z,95929.19
2023-02-06T01:42:37.652Z,95924.28
2023-02-06T01:45:17.035Z,95928.75
2023-02-06T01:47:43.882Z,95931.31
2023-02-06T01:50:11.622Z,95938.28
2023-02-06T01:52:38.579Z,95938.03
2023-02-06T01:55:06.740Z,95941.81
2023-02-06T01:57:34.906Z,95943.28
2023-02-06T02:00:07.089Z,95945.16
2023-02-06T02:02:43.687Z,95946.44
2023-02-06T02:05:12.482Z,95942.47
2023-02-06T02:07:48.098Z,95938.56
2023-02-06T02:10:15.360Z,95936.75
2023-02-06T02:12:42.041Z,95944.47
2023-02-06T02:15:09.310Z,95929.31
2023-02-06T02:17:55.605Z,95937.75
2023-02-06T02:20:37.102Z,95940.56
2023-02-06T02:23:08.198Z,95943.78
2023-02-06T02:25:50.585Z,95937.88
2023-02-06T02:28:29.680Z,95939.16
2023-02-06T02:31:08.382Z,95945.97
2023-02-06T02:34:01.102Z,95953.09
2023-02-06T02:36:37.509Z,95958.03
2023-02-06T02:39:40.373Z,95953.72
2023-02-06T02:42:27.693Z,95957.84
2023-02-06T02:45:12.908Z,95957.47
2023-02-06T02:47:47.636Z,95947.78
2023-02-06T02:50:16.856Z,95948.28
2023-02-06T02:52:44.991Z,95941.63
2023-02-06T02:55:22.455Z,95957.09
2023-02-06T02:57:59.780Z,95929.78
2023-02-06T03:00:27.438Z,95960.91
2023-02-06T03:02:57.493Z,95969.97
2023-02-06T03:05:26.179Z,95962.69
2023-02-06T03:08:10.988Z,95966.53
2023-02-06T03:10:47.525Z,95974.78
2023-02-06T03:13:32.042Z,95969.25
2023-02-06T03:16:18.108Z,95969.25
2023-02-06T03:18:56.494Z,95968.94
2023-02-06T03:21:25.209Z,95963.03
2023-02-06T03:23:57.909Z,95968.75
2023-02-06T03:26:27.621Z,95959.50
2023-02-06T03:29:00.337Z,95981.63
2023-02-06T03:31:40.002Z,95976.22
2023-02-06T03:34:15.713Z,95971.22
2023-02-06T03:36:43.866Z,95962.63
2023-02-06T03:39:11.403Z,95970.44
2023-02-06T03:41:40.600Z,95973.16
2023-02-06T03:44:12.153Z,95965.56
2023-02-06T03:46:41.856Z,95973.53
2023-02-06T03:49:12.932Z,95973.31
2023-02-06T03:51:53.076Z,95970.97
2023-02-06T03:54:22.842Z,95970.75
2023-02-06T03:56:55.162Z,95970.28
2023-02-06T03:59:23.484Z,95964.81
2023-02-06T04:01:57.355Z,95964.78
2023-02-06T04:04:29.535Z,95973.88
2023-02-06T04:07:07.312Z,95974.41
2023-02-06T04:09:34.164Z,95975.19
2023-02-06T04:12:00.862Z,95978.56
2023-02-06T04:14:27.677Z,95984.88
2023-02-06T04:16:54.538Z,95974.03
2023-02-06T04:19:21.305Z,95982.38
2023-02-06T04:21:48.243Z,95985.50
2023-02-06T04:24:15.211Z,95986.72
2023-02-06T04:26:41.886Z,95996.13
2023-02-06T04:29:08.802Z,95999.34
2023-02-06T04:31:35.606Z,96002.56
2023-02-06T04:34:02.436Z,96003.78
2023-02-06T04:36:29.193Z,95996.81
2023-02-06T04:38:56.143Z,95996.81
2023-02-06T04:41:22.855Z,96003.09
2023-02-06T04:43:49.571Z,95996.22
2023-02-06T04:46:16.433Z,96004.56
2023-02-06T04:48:43.200Z,96003.00
2023-02-06T04:51:10.145Z,95997.00
2023-02-06T04:53:36.923Z,95997.53
2023-02-06T04:56:08.975Z,96000.03
2023-02-06T04:58:38.563Z,96001.16
2023-02-06T05:01:05.908Z,96012.44
2023-02-06T05:03:33.253Z,96006.91
2023-02-06T05:06:02.240Z,96005.88
2023-02-06T05:08:29.682Z,96010.34
2023-02-06T05:10:57.226Z,96023.97
2023-02-06T05:13:24.044Z,96019.09
2023-02-06T05:15:51.649Z,96029.06
2023-02-06T05:18:18.667Z,96034.63
2023-02-06T05:20:46.265Z,96034.09
2023-02-06T05:23:12.984Z,96032.75
2023-02-06T05:25:42.119Z,96037.72
2023-02-06T05:28:09.209Z,96045.34
2023-02-06T05:30:36.534Z,96042.66
2023-02-06T05:33:04.443Z,96044.56
2023-02-06T05:35:31.182Z,96045.25
2023-02-06T05:37:58.276Z,96060.59
2023-02-06T05:40:25.139Z,96065.53
2023-02-06T05:42:51.976Z,96044.50
2023-02-06T05:45:18.843Z,96042.13
2023-02-06T05:47:46.094Z,96064.81
2023-02-06T05:50:12.803Z,96071.72
2023-02-06T05:52:39.620Z,96070.44
2023-02-06T05:55:07.229Z,96063.66
2023-02-06T05:57:34.699Z,96068.28
2023-02-06T06:00:01.489Z,96085.56
2023-02-06T06:02:38.504Z,96076.50
2023-02-06T06:05:06.102Z,96077.47
2023-02-06T06:07:32.915Z,96079.16
2023-02-06T06:09:59.799Z,96051.09
2023-02-06T06:12:26.556Z,96085.63
2023-02-06T06:14:53.562Z,96083.75
2023-02-06T06:17:20.858Z,96087.38
2023-02-06T06:19:47.579Z,96084.88
2023-02-06T06:22:14.341Z,96082.19
2023-02-06T06:24:42.226Z,96074.47
2023-02-06T06:27:10.776Z,96077.81
2023-02-06T06:29:37.683Z,96077.97
2023-02-06T06:32:05.346Z,96068.75
2023-02-06T06:34:32.120Z,96085.16
2023-02-06T06:36:59.045Z,96080.75
2023-02-06T06:39:25.893Z,96085.75
2023-02-06T06:41:52.670Z,96090.78
2023-02-06T06:44:19.409Z,96088.66
2023-02-06T06:46:46.333Z,96099.50
2023-02-06T06:49:13.123Z,96078.94
2023-02-06T06:51:39.870Z,96104.09
2023-02-06T06:54:06.637Z,96108.63
2023-02-06T06:56:33.587Z,96102.75
2023-02-06T06:59:00.286Z,96102.88
2023-02-06T07:01:27.204Z,96105.75
2023-02-06T07:03:54.004Z,96105.13
2023-02-06T07:06:20.944Z,96106.69
2023-02-06T07:08:47.643Z,96116.91
2023-02-06T07:11:15.515Z,96120.34
2023-02-06T07:13:43.032Z,96122.34
2023-02-06T07:16:10.617Z,96113.84
2023-02-06T07:18:39.839Z,96132.25
2023-02-06T07:21:08.718Z,96129.94
2023-02-06T07:23:38.647Z,96141.06
2023-02-06T07:26:05.781Z,96137.84
2023-02-06T07:28:33.315Z,96122.91
2023-02-06T07:31:01.565Z,96120.97
2023-02-06T07:33:28.733Z,96106.94
2023-02-06T07:35:55.480Z,96134.63
2023-02-06T07:38:22.536Z,96138.19
2023-02-06T07:40:49.348Z,96136.94
2023-02-06T07:43:16.538Z,96129.75
2023-02-06T07:45:43.422Z,96130.19
2023-02-06T07:48:10.446Z,96130.00
2023-02-06T07:50:37.530Z,96143.78
2023-02-06T07:53:04.407Z,96146.34
2023-02-06T07:55:31.158Z,96146.25
2023-02-06T07:57:58.072Z,96143.19
2023-02-06T08:00:24.849Z,96141.63
2023-02-06T08:02:51.703Z,96146.16
2023-02-06T08:05:18.600Z,96146.31
2023-02-06T08:07:45.551Z,96143.56
2023-02-06T08:10:12.349Z,96133.72
2023-02-06T08:12:39.146Z,96142.44
2023-02-06T08:15:06.309Z,96134.16
2023-02-06T08:17:33.113Z,96135.16
2023-02-06T08:20:00.247Z,96128.13
2023-02-06T08:22:28.936Z,96135.81
2023-02-06T08:24:55.679Z,96140.69
2023-02-06T08:27:22.412Z,96145.69
2023-02-06T08:29:49.290Z,96144.22
2023-02-06T08:32:15.908Z,96145.13
2023-02-06T08:34:42.673Z,96150.38
2023-02-06T08:37:09.422Z,96140.84
2023-02-06T08:39:36.511Z,96146.63
2023-02-06T08:42:03.236Z,96142.19
2023-02-06T08:44:30.260Z,96156.88
2023-02-06T08:47:09.169Z,96159.63
2023-02-06T08:49:36.852Z,96157.91
2023-02-06T08:52:03.700Z,96154.66
2023-02-06T08:54:31.135Z,96151.19
2023-02-06T08:57:01.133Z,96157.13
2023-02-06T08:59:32.233Z,96147.19
2023-02-06T09:01:59.200Z,96164.56
2023-02-06T09:04:31.634Z,96161.38
2023-02-06T09:06:58.646Z,96148.88
2023-02-06T09:09:25.368Z,96147.50
2023-02-06T09:11:53.387Z,96154.44
2023-02-06T09:14:20.614Z,96130.84
2023-02-06T09:16:47.642Z,96150.31
2023-02-06T09:19:14.789Z,96139.63
2023-02-06T09:21:41.740Z,96153.97
2023-02-06T09:24:09.634Z,96155.19
2023-02-06T09:26:53.402Z,96149.72
2023-02-06T09:29:24.226Z,96164.81
2023-02-06T09:31:50.987Z,96165.38
2023-02-06T09:34:17.855Z,96142.66
2023-02-06T09:36:44.842Z,96152.09
2023-02-06T09:39:11.750Z,96153.53
2023-02-06T09:41:49.182Z,96154.44
2023-02-06T09:44:32.001Z,96139.81
2023-02-06T09:47:17.613Z,96135.94
2023-02-06T09:49:54.823Z,96140.06
2023-02-06T09:52:51.481Z,96139.50
2023-02-06T09:55:44.415Z,96136.78
2023-02-06T09:58:32.872Z,96125.06
2023-02-06T10:01:13.128Z,96127.53
2023-02-06T10:03:52.098Z,96110.22
2023-02-06T10:06:43.628Z,96131.63
2023-02-06T10:09:43.115Z,96122.72
2023-02-06T10:12:20.093Z,96102.66
2023-02-06T10:15:13.922Z,96121.09
2023-02-06T10:17:57.379Z,96107.47
2023-02-06T10:20:36.590Z,96090.72
2023-02-06T10:23:09.817Z,96101.63
2023-02-06T10:25:42.285Z,96103.81
2023-02-06T10:28:30.689Z,96101.72
2023-02-06T10:31:21.553Z,96102.09
2023-02-06T10:34:10.297Z,96093.59
2023-02-06T10:36:50.604Z,96088.53
2023-02-06T10:39:50.706Z,96088.44
2023-02-06T10:42:45.573Z,96087.84
2023-02-06T10:45:20.098Z,96091.81
2023-02-06T10:48:04.486Z,96086.47
2023-02-06T10:50:42.296Z,96080.97
2023-02-06T10:53:18.021Z,96080.63
2023-02-06T10:55:56.198Z,96071.78
2023-02-06T10:58:31.191Z,96085.00
2023-02-06T11:01:00.189Z,96079.41
2023-02-06T11:03:32.002Z,96086.97
2023-02-06T11:06:01.697Z,96085.09
2023-02-06T11:08:30.607Z,96085.81
2023-02-06T11:10:57.851Z,96081.91
2023-02-06T11:13:36.781Z,96097.78
2023-02-06T11:16:08.970Z,96084.38
2023-02-06T11:18:39.201Z,96081.34
2023-02-06T11:21:08.600Z,96090.84
2023-02-06T11:23:36.632Z,96095.03
2023-02-06T11:26:06.072Z,96093.97
2023-02-06T11:28:35.549Z,96100.03
2023-02-06T11:31:06.191Z,96095.91
2023-02-06T11:33:39.541Z,96079.47
2023-02-06T11:36:20.183Z,96082.41
2023-02-06T11:38:59.708Z,96076.97
2023-02-06T11:41:27.342Z,96085.00
2023-02-06T11:44:06.715Z,96076.03
2023-02-06T11:46:36.110Z,96075.69
2023-02-06T11:49:05.229Z,96069.28
2023-02-06T11:51:51.518Z,96074.31
2023-02-06T11:54:22.742Z,96057.88
2023-02-06T11:57:04.920Z,96067.47
2023-02-06T11:59:34.615Z,96066.22
2023-02-06T12:02:05.782Z,96055.78
2023-02-06T12:04:40.744Z,96061.53
2023-02-06T12:07:31.370Z,96058.34
2023-02-06T12:09:58.265Z,96059.09
2023-02-06T12:12:30.640Z,96062.78
2023-02-06T12:15:29.528Z,96050.69
2023-02-06T12:18:06.103Z,96050.75
2023-02-06T12:20:36.813Z,96050.31
2023-02-06T12:23:11.188Z,96049.38
2023-02-06T12:25:44.309Z,96053.63
2023-02-06T12:28:38.002Z,96053.91
2023-02-06T12:31:13.024Z,96053.41
2023-02-06T12:33:48.823Z,96044.53
2023-02-06T12:36:28.068Z,96046.63
2023-02-06T12:39:14.487Z,96045.00
2023-02-06T12:42:00.377Z,96049.16
2023-02-06T12:44:45.672Z,96052.06
2023-02-06T12:47:15.526Z,96061.56
2023-02-06T12:50:12.906Z,96072.91
2023-02-06T12:52:45.080Z,96067.72
2023-02-06T12:55:30.537Z,96069.56
2023-02-06T12:57:58.464Z,96079.59
2023-02-06T13:00:59.964Z,96081.56
2023-02-06T13:03:43.739Z,96083.19
2023-02-06T13:06:22.605Z,96081.13
2023-02-06T13:08:56.158Z,96068.41
2023-02-06T13:11:28.885Z,96072.75
2023-02-06T13:14:06.893Z,96072.56
2023-02-06T13:16:58.261Z,96083.75
2023-02-06T13:19:25.092Z,96081.00
2023-02-06T13:22:13.632Z,96104.09
2023-02-06T13:24:42.587Z,96089.75
2023-02-06T13:27:09.233Z,96101.63
2023-02-06T13:29:47.731Z,96109.00
2023-02-06T13:32:21.777Z,96115.84
2023-02-06T13:35:00.439Z,96112.63
2023-02-06T13:37:37.266Z,96110.91
2023-02-06T13:40:26.652Z,96109.19
2023-02-06T13:43:05.366Z,96108.09
2023-02-06T13:46:01.934Z,96104.91
2023-02-06T13:48:58.346Z,96107.44
2023-02-06T13:51:46.889Z,96096.53
2023-02-06T13:54:51.372Z,96091.63
2023-02-06T13:57:31.723Z,96095.34
2023-02-06T14:00:10.783Z,96099.06
2023-02-06T14:02:40.795Z,96111.72
2023-02-06T14:05:16.529Z,96113.09
2023-02-06T14:08:38.020Z,96112.72
2023-02-06T14:11:14.550Z,96128.03
2023-02-06T14:14:01.068Z,96131.84
2023-02-06T14:16:50.489Z,96135.97
2023-02-06T14:19:41.841Z,96134.66
2023-02-06T14:22:29.066Z,96140.38
2023-02-06T14:25:17.672Z,96143.91
2023-02-06T14:28:09.053Z,96145.13
2023-02-06T14:30:46.258Z,96146.69
2023-02-06T14:33:40.909Z,96164.81
2023-02-06T14:36:36.842Z,96163.03
2023-02-06T14:39:48.008Z,96154.06
2023-02-06T14:42:20.725Z,96159.81
2023-02-06T14:45:06.963Z,96153.78
2023-02-06T14:47:42.243Z,96168.97
2023-02-06T14:50:21.772Z,96171.78
2023-02-06T14:52:53.027Z,96171.28
2023-02-06T14:55:34.294Z,96155.06
2023-02-06T14:58:01.594Z,96172.28
2023-02-06T15:00:29.020Z,96176.50
2023-02-06T15:03:04.647Z,96177.16
2023-02-06T15:05:32.004Z,96177.00
2023-02-06T15:08:02.043Z,96162.78
2023-02-06T15:10:37.092Z,96176.69
2023-02-06T15:13:04.646Z,96177.56
2023-02-06T15:15:33.871Z,96179.94
2023-02-06T15:18:06.513Z,96182.25
2023-02-06T15:20:37.555Z,96172.97
2023-02-06T15:23:16.937Z,96187.81
2023-02-06T15:25:57.008Z,96183.28
2023-02-06T15:28:28.938Z,96195.47
2023-02-06T15:30:57.620Z,96201.97
2023-02-06T15:33:28.293Z,96203.31
2023-02-06T15:35:57.401Z,96219.50
2023-02-06T15:38:27.207Z,96216.94
2023-02-06T15:40:58.497Z,96221.50
2023-02-06T15:43:27.138Z,96219.88
2023-02-06T15:45:57.049Z,96215.25
2023-02-06T15:48:45.042Z,96224.91
2023-02-06T15:51:20.769Z,96235.06
2023-02-06T15:53:50.699Z,96234.81
2023-02-06T15:56:30.474Z,96239.09
2023-02-06T15:59:03.724Z,96237.03
2023-02-06T16:01:35.007Z,96249.91
2023-02-06T16:04:08.796Z,96245.19
2023-02-06T16:06:36.311Z,96249.19
2023-02-06T16:09:07.282Z,96254.53
2023-02-06T16:11:47.539Z,96253.91
2023-02-06T16:14:37.255Z,96251.50
2023-02-06T16:17:22.300Z,96249.97
2023-02-06T16:19:59.146Z,96266.16
2023-02-06T16:22:33.313Z,96265.94
2023-02-06T16:25:23.221Z,96277.50
2023-02-06T16:27:55.913Z,96281.91
2023-02-06T16:30:37.316Z,96295.91
2023-02-06T16:33:25.926Z,96289.66
2023-02-06T16:35:52.845Z,96295.53
2023-02-06T16:38:20.541Z,96291.31
2023-02-06T16:40:50.467Z,96282.81
2023-02-06T16:43:17.289Z,96297.94
2023-02-06T16:45:44.113Z,96296.47
2023-02-06T16:48:17.317Z,96297.03
2023-02-06T16:50:46.857Z,96300.38
2023-02-06T16:53:25.687Z,96312.00
2023-02-06T16:55:52.700Z,96308.44
2023-02-06T16:58:22.788Z,96299.25
2023-02-06T17:00:49.678Z,96303.47
2023-02-06T17:03:17.796Z,96312.41
2023-02-06T17:05:46.662Z,96307.94
2023-02-06T17:08:24.651Z,96315.31
2023-02-06T17:10:52.232Z,96305.63
2023-02-06T17:13:22.199Z,96327.63
2023-02-06T17:15:52.197Z,96326.75
2023-02-06T17:18:20.536Z,96333.06
2023-02-06T17:20:51.616Z,96338.72
2023-02-06T17:23:19.211Z,96322.91
2023-02-06T17:25:47.345Z,96344.56
2023-02-06T17:28:21.350Z,96343.31
2023-02-06T17:30:50.906Z,96355.53
2023-02-06T17:33:18.065Z,96358.03
2023-02-06T17:35:46.503Z,96353.41
2023-02-06T17:38:13.365Z,96355.25
2023-02-06T17:40:41.325Z,96355.38
2023-02-06T17:43:09.738Z,96350.53
2023-02-06T17:45:39.243Z,96340.41
2023-02-06T17:48:06.562Z,96344.75
2023-02-06T17:50:36.121Z,96349.63
2023-02-06T17:53:07.135Z,96358.38
2023-02-06T17:55:35.312Z,96363.53
2023-02-06T17:58:02.776Z,96360.75
2023-02-06T18:00:30.135Z,96356.75
2023-02-06T18:02:59.303Z,96352.09
2023-02-06T18:05:26.903Z,96355.63
2023-02-06T18:07:53.969Z,96345.72
2023-02-06T18:10:22.654Z,96351.00
2023-02-06T18:12:50.028Z,96336.34
2023-02-06T18:15:17.602Z,96351.34
2023-02-06T18:17:44.564Z,96351.63
2023-02-06T18:20:12.656Z,96353.88
2023-02-06T18:22:42.438Z,96358.84
2023-02-06T18:25:12.132Z,96353.97
2023-02-06T18:27:40.199Z,96361.03
2023-02-06T18:30:08.138Z,96338.63
2023-02-06T18:32:37.572Z,96355.63
2023-02-06T18:35:05.212Z,96346.63
2023-02-06T18:37:32.066Z,96357.22
2023-02-06T18:39:58.931Z,96352.97
2023-02-06T18:42:44.341Z,96369.31
2023-02-06T18:45:11.132Z,96361.47
2023-02-06T18:47:39.130Z,96362.34
2023-02-06T18:50:06.136Z,96374.44
2023-02-06T18:52:32.945Z,96363.72
2023-02-06T18:55:00.003Z,96367.25
2023-02-06T18:57:26.694Z,96367.94
2023-02-06T18:59:53.509Z,96370.66
2023-02-06T19:02:20.484Z,96376.09
2023-02-06T19:04:47.204Z,96385.03
2023-02-06T19:07:15.433Z,96385.06
2023-02-06T19:09:42.824Z,96384.22
2023-02-06T19:12:09.697Z,96386.22
2023-02-06T19:14:36.593Z,96372.28
2023-02-06T19:17:03.472Z,96378.88
2023-02-06T19:19:30.516Z,96369.63
2023-02-06T19:21:57.829Z,96371.22
2023-02-06T19:24:26.288Z,96375.50
2023-02-06T19:26:53.085Z,96369.09
2023-02-06T19:29:34.355Z,96371.81
2023-02-06T19:32:03.622Z,96378.03
2023-02-06T19:34:30.532Z,96380.00
2023-02-06T19:36:57.447Z,96381.16
2023-02-06T19:39:24.749Z,96386.13
2023-02-06T19:41:51.635Z,96388.38
2023-02-06T19:44:18.448Z,96390.13
2023-02-06T19:46:45.477Z,96385.78
2023-02-06T19:49:12.529Z,96385.78
2023-02-06T19:51:41.607Z,96366.78
2023-02-06T19:54:08.645Z,96391.06
2023-02-06T19:56:39.580Z,96396.13
2023-02-06T19:59:17.921Z,96391.41
2023-02-06T20:02:14.525Z,96379.31
2023-02-06T20:04:41.594Z,96396.28
2023-02-06T20:07:08.452Z,96399.00
2023-02-06T20:09:36.574Z,96393.84
2023-02-06T20:12:03.707Z,96373.91
2023-02-06T20:14:30.523Z,96382.75
2023-02-06T20:16:57.509Z,96389.44
2023-02-06T20:19:26.985Z,96343.06
2023-02-06T20:21:58.052Z,96400.56
2023-02-06T20:24:27.946Z,96385.66
2023-02-06T20:26:57.787Z,96395.19
2023-02-06T20:29:29.163Z,96383.03
2023-02-06T20:31:57.002Z,96388.03
2023-02-06T20:34:24.895Z,96388.97
2023-02-06T20:36:51.974Z,96394.00
2023-02-06T20:39:19.646Z,96388.16
2023-02-06T20:41:49.434Z,96392.72
2023-02-06T20:44:17.346Z,96393.44
2023-02-06T20:46:44.482Z,96394.41
2023-02-06T20:49:23.163Z,96383.13
2023-02-06T20:51:51.136Z,96393.84
2023-02-06T20:54:19.583Z,96377.59
2023-02-06T20:56:46.994Z,96387.25
2023-02-06T20:59:16.013Z,96390.72
2023-02-06T21:01:43.240Z,96386.34
2023-02-06T21:04:12.616Z,96395.16
2023-02-06T21:06:39.862Z,96394.47
2023-02-06T21:09:08.394Z,96398.66
2023-02-06T21:11:39.238Z,96374.84
2023-02-06T21:14:06.698Z,96400.72
2023-02-06T21:16:35.744Z,96396.41
2023-02-06T21:19:04.725Z,96386.16
2023-02-06T21:21:31.731Z,96392.50
2023-02-06T21:23:58.894Z,96381.34
2023-02-06T21:26:27.395Z,96381.56
2023-02-06T21:28:55.018Z,96385.78
2023-02-06T21:31:25.139Z,96383.94
2023-02-06T21:33:52.484Z,96387.75
2023-02-06T21:36:21.154Z,96400.38
2023-02-06T21:38:48.205Z,96397.50
2023-02-06T21:41:18.225Z,96387.25
2023-02-06T21:43:45.827Z,96394.28
2023-02-06T21:46:13.268Z,96382.78
2023-02-06T21:48:41.360Z,96398.19
2023-02-06T21:51:13.445Z,96402.00
2023-02-06T21:53:40.569Z,96406.59
2023-02-06T21:56:09.878Z,96408.78
2023-02-06T21:58:37.050Z,96402.56
2023-02-06T22:01:08.840Z,96414.13
2023-02-06T22:03:36.056Z,96413.13
2023-02-06T22:06:09.350Z,96413.78
2023-02-06T22:08:36.867Z,96418.66
2023-02-06T22:11:24.201Z,96414.59
2023-02-06T22:13:51.858Z,96420.50
2023-02-06T22:16:21.754Z,96429.09
2023-02-06T22:18:49.398Z,96427.69
2023-02-06T22:21:19.160Z,96423.63
2023-02-06T22:23:47.499Z,96418.97
2023-02-06T22:26:15.976Z,96425.44
2023-02-06T22:28:43.903Z,96424.78
2023-02-06T22:31:14.278Z,96427.75
2023-02-06T22:33:41.631Z,96428.69
2023-02-06T22:36:11.788Z,96425.25
2023-02-06T22:38:39.545Z,96430.78
2023-02-06T22:41:10.691Z,96426.22
2023-02-06T22:43:38.822Z,96416.63
2023-02-06T22:46:07.011Z,96416.94
2023-02-06T22:48:34.134Z,96427.69
2023-02-06T22:51:09.015Z,96423.88
2023-02-06T22:53:38.468Z,96422.59
2023-02-06T22:56:27.123Z,96426.72
2023-02-06T22:59:01.772Z,96420.13
2023-02-06T23:01:59.494Z,96427.91
2023-02-06T23:04:30.241Z,96423.34
2023-02-06T23:06:57.639Z,96432.72
2023-02-06T23:09:26.931Z,96430.47
2023-02-06T23:11:54.928Z,96431.44
2023-02-06T23:14:21.822Z,96431.75
2023-02-06T23:16:49.045Z,96426.72
2023-02-06T23:19:17.009Z,96432.97
2023-02-06T23:21:45.703Z,96421.44
2023-02-06T23:24:13.278Z,96438.34
2023-02-06T23:26:45.218Z,96439.78
2023-02-06T23:29:17.803Z,96436.63
2023-02-06T23:31:45.981Z,96428.13
2023-02-06T23:34:13.820Z,96436.38
2023-02-06T23:36:41.024Z,96424.66
2023-02-06T23:39:07.750Z,96438.38
2023-02-06T23:41:35.007Z,96446.19
2023-02-06T23:44:04.632Z,96423.25
2023-02-06T23:46:34.538Z,96443.31
2023-02-06T23:49:01.292Z,96439.97
2023-02-06T23:51:28.360Z,96441.13
2023-02-06T23:53:55.127Z,96436.75
2023-02-06T23:56:32.270Z,96444.78
2023-02-06T23:59:00.631Z,96444.72
